createdAt,value
2023-09-27T00:00:10.066Z,23.42
2023-09-27T00:02:41.158Z,23.53
2023-09-27T00:05:12.313Z,23.33
2023-09-27T00:07:41.457Z,23.17
2023-09-27T00:10:12.983Z,23.35
2023-09-27T00:12:41.993Z,23.47
2023-09-27T00:15:11.391Z,23.39
2023-09-27T00:17:39.416Z,23.22
2023-09-27T00:20:10.868Z,22.95
2023-09-27T00:22:38.585Z,22.99
2023-09-27T00:25:08.642Z,23.04
2023-09-27T00:27:37.126Z,23.03
2023-09-27T00:30:08.834Z,22.99
2023-09-27T00:32:36.831Z,23.10
2023-09-27T00:35:05.344Z,23.23
2023-09-27T00:37:34.717Z,23.26
2023-09-27T00:40:01.947Z,23.32
2023-09-27T00:42:29.069Z,23.26
2023-09-27T00:44:56.265Z,23.38
2023-09-27T00:47:23.608Z,23.34
2023-09-27T00:49:54.115Z,23.43
2023-09-27T00:52:21.287Z,23.47
2023-09-27T00:54:48.560Z,23.48
2023-09-27T00:57:15.916Z,23.46
2023-09-27T00:59:43.372Z,23.46
2023-09-27T01:02:11.317Z,23.34
2023-09-27T01:04:41.663Z,23.35
2023-09-27T01:07:09.259Z,23.36
2023-09-27T01:09:38.490Z,23.41
2023-09-27T01:12:06.262Z,23.37
2023-09-27T01:14:33.538Z,23.16
2023-09-27T01:17:13.456Z,22.89
2023-09-27T01:19:41.441Z,22.95
2023-09-27T01:22:08.766Z,23.00
2023-09-27T01:24:38.824Z,23.03
2023-09-27T01:27:09.740Z,23.05
2023-09-27T01:29:36.970Z,22.95
2023-09-27T01:32:04.258Z,22.89
2023-09-27T01:34:31.434Z,22.99
2023-09-27T01:36:59.202Z,22.99
2023-09-27T01:39:26.578Z,23.04
2023-09-27T01:41:53.788Z,22.98
2023-09-27T01:44:20.873Z,22.83
2023-09-27T01:46:48.033Z,22.77
2023-09-27T01:49:15.172Z,22.82
2023-09-27T01:51:42.515Z,22.85
2023-09-27T01:54:09.554Z,22.96
2023-09-27T01:56:36.797Z,22.88
2023-09-27T01:59:04.048Z,22.93
2023-09-27T02:01:31.249Z,23.03
2023-09-27T02:03:58.622Z,23.10
2023-09-27T02:06:25.807Z,22.79
2023-09-27T02:08:53.184Z,22.73
2023-09-27T02:11:26.582Z,22.77
2023-09-27T02:13:54.516Z,22.82
2023-09-27T02:16:21.961Z,22.85
2023-09-27T02:18:50.523Z,22.84
2023-09-27T02:21:17.834Z,22.85
2023-09-27T02:23:45.383Z,22.93
2023-09-27T02:26:14.272Z,22.83
2023-09-27T02:28:44.448Z,22.47
2023-09-27T02:31:11.765Z,22.47
2023-09-27T02:33:39.847Z,22.31
2023-09-27T02:36:07.275Z,22.25
2023-09-27T02:38:37.417Z,22.19
2023-09-27T02:41:05.577Z,22.03
2023-09-27T02:43:32.905Z,22.10
2023-09-27T02:46:00.075Z,22.03
2023-09-27T02:48:27.646Z,22.00
2023-09-27T02:50:54.823Z,22.15
2023-09-27T02:53:22.692Z,22.23
2023-09-27T02:55:49.859Z,22.22
2023-09-27T02:58:17.155Z,22.41
2023-09-27T03:00:44.391Z,22.34
2023-09-27T03:03:11.953Z,22.13
2023-09-27T03:05:40.090Z,22.32
2023-09-27T03:08:08.412Z,22.23
2023-09-27T03:10:40.098Z,22.04
2023-09-27T03:13:09.354Z,22.25
2023-09-27T03:15:39.881Z,22.25
2023-09-27T03:18:07.325Z,22.41
2023-09-27T03:20:34.798Z,22.48
2023-09-27T03:23:02.266Z,22.62
2023-09-27T03:25:29.578Z,22.57
2023-09-27T03:27:56.757Z,22.64
2023-09-27T03:30:24.287Z,22.58
2023-09-27T03:32:51.445Z,22.46
2023-09-27T03:35:20.154Z,22.42
2023-09-27T03:37:48.366Z,22.41
2023-09-27T03:40:16.364Z,22.43
2023-09-27T03:42:45.486Z,22.31
2023-09-27T03:45:18.167Z,22.18
2023-09-27T03:47:48.762Z,21.77
2023-09-27T03:50:21.119Z,21.66
2023-09-27T03:52:48.389Z,21.90
2023-09-27T03:55:16.147Z,22.11
2023-09-27T03:57:44.054Z,22.26
2023-09-27T04:00:16.106Z,22.29
2023-09-27T04:02:47.948Z,22.16
2023-09-27T04:05:16.646Z,22.26
2023-09-27T04:07:43.917Z,22.23
2023-09-27T04:10:11.932Z,22.44
2023-09-27T04:12:39.519Z,22.46
2023-09-27T04:15:10.603Z,22.30
2023-09-27T04:17:38.884Z,22.37
2023-09-27T04:20:12.988Z,22.22
2023-09-27T04:22:40.217Z,22.23
2023-09-27T04:25:08.057Z,22.32
2023-09-27T04:27:35.249Z,22.36
2023-09-27T04:30:02.557Z,22.40
2023-09-27T04:32:29.718Z,22.24
2023-09-27T04:34:57.100Z,22.06
2023-09-27T04:37:24.216Z,21.88
2023-09-27T04:39:51.351Z,21.29
2023-09-27T04:42:18.799Z,20.69
2023-09-27T04:44:46.031Z,21.08
2023-09-27T04:47:13.358Z,21.68
2023-09-27T04:49:40.639Z,22.17
2023-09-27T04:52:07.704Z,22.43
2023-09-27T04:54:34.834Z,22.76
2023-09-27T04:57:02.110Z,22.77
2023-09-27T04:59:29.337Z,22.97
2023-09-27T05:01:56.514Z,23.05
2023-09-27T05:04:23.857Z,22.95
2023-09-27T05:06:51.123Z,23.16
2023-09-27T05:09:19.498Z,23.21
2023-09-27T05:11:48.132Z,23.14
2023-09-27T05:14:15.189Z,22.97
2023-09-27T05:16:42.421Z,22.15
2023-09-27T05:19:10.342Z,21.47
2023-09-27T05:21:37.886Z,21.61
2023-09-27T05:24:05.589Z,21.93
2023-09-27T05:26:32.795Z,22.07
2023-09-27T05:29:00.096Z,21.91
2023-09-27T05:31:27.370Z,21.62
2023-09-27T05:33:54.570Z,21.61
2023-09-27T05:36:21.684Z,21.58
2023-09-27T05:38:48.761Z,21.49
2023-09-27T05:41:15.823Z,21.32
2023-09-27T05:43:42.937Z,21.32
2023-09-27T05:46:10.234Z,21.25
2023-09-27T05:48:37.485Z,21.50
2023-09-27T05:51:05.236Z,21.75
2023-09-27T05:53:33.132Z,21.85
2023-09-27T05:56:04.387Z,21.83
2023-09-27T05:58:35.611Z,21.96
2023-09-27T06:01:03.609Z,22.02
2023-09-27T06:03:37.385Z,21.87
2023-09-27T06:06:04.828Z,22.02
2023-09-27T06:08:32.244Z,22.08
2023-09-27T06:11:00.819Z,22.02
2023-09-27T06:13:28.437Z,22.07
2023-09-27T06:16:00.212Z,22.26
2023-09-27T06:18:27.573Z,22.38
2023-09-27T06:20:54.975Z,22.48
2023-09-27T06:23:22.616Z,22.48
2023-09-27T06:25:49.803Z,22.53
2023-09-27T06:28:16.846Z,22.55
2023-09-27T06:30:44.030Z,22.61
2023-09-27T06:33:11.341Z,22.36
2023-09-27T06:35:38.829Z,22.47
2023-09-27T06:38:06.991Z,22.65
2023-09-27T06:40:34.200Z,22.77
2023-09-27T06:43:02.102Z,22.89
2023-09-27T06:45:30.126Z,22.77
2023-09-27T06:47:57.518Z,22.91
2023-09-27T06:50:25.045Z,23.03
2023-09-27T06:52:55.469Z,23.06
2023-09-27T06:55:25.144Z,23.10
2023-09-27T06:57:53.692Z,23.20
2023-09-27T07:00:25.443Z,23.26
2023-09-27T07:02:53.877Z,23.27
2023-09-27T07:05:24.888Z,23.33
2023-09-27T07:07:52.824Z,23.34
2023-09-27T07:10:20.351Z,23.35
2023-09-27T07:12:48.007Z,23.34
2023-09-27T07:15:15.573Z,23.40
2023-09-27T07:17:45.418Z,23.38
2023-09-27T07:20:22.381Z,23.32
2023-09-27T07:22:49.531Z,23.42
2023-09-27T07:25:19.789Z,23.49
2023-09-27T07:27:51.575Z,23.54
2023-09-27T07:30:19.785Z,23.52
2023-09-27T07:32:47.515Z,23.64
2023-09-27T07:35:19.548Z,23.64
2023-09-27T07:37:46.713Z,23.68
2023-09-27T07:40:15.298Z,23.71
2023-09-27T07:42:44.861Z,23.72
2023-09-27T07:45:22.805Z,23.85
2023-09-27T07:47:54.862Z,23.83
2023-09-27T07:50:24.466Z,23.82
2023-09-27T07:52:52.899Z,23.82
2023-09-27T07:55:22.531Z,23.71
2023-09-27T07:57:51.041Z,23.64
2023-09-27T08:00:20.355Z,23.70
2023-09-27T08:02:47.895Z,23.77
2023-09-27T08:05:18.412Z,23.87
2023-09-27T08:07:45.775Z,23.97
2023-09-27T08:10:20.672Z,24.04
2023-09-27T08:12:49.851Z,24.04
2023-09-27T08:15:19.283Z,24.05
2023-09-27T08:17:49.059Z,23.98
2023-09-27T08:20:16.624Z,24.18
2023-09-27T08:22:43.936Z,24.29
2023-09-27T08:25:16.716Z,24.30
2023-09-27T08:27:44.794Z,24.41
2023-09-27T08:30:15.363Z,24.43
2023-09-27T08:32:43.393Z,24.36
2023-09-27T08:35:11.726Z,24.42
2023-09-27T08:37:39.128Z,24.66
2023-09-27T08:40:08.770Z,24.72
2023-09-27T08:42:35.885Z,24.76
2023-09-27T08:45:05.684Z,24.83
2023-09-27T08:47:33.890Z,24.96
2023-09-27T08:50:01.441Z,24.94
2023-09-27T08:52:29.736Z,25.16
2023-09-27T08:54:57.712Z,25.20
2023-09-27T08:57:27.498Z,25.26
2023-09-27T08:59:55.175Z,25.30
2023-09-27T09:02:27.552Z,25.33
2023-09-27T09:04:55.602Z,25.24
2023-09-27T09:07:22.801Z,25.36
2023-09-27T09:09:50.042Z,25.40
2023-09-27T09:12:18.785Z,25.45
2023-09-27T09:14:51.098Z,25.45
2023-09-27T09:17:26.955Z,25.50
2023-09-27T09:20:38.184Z,25.54
2023-09-27T09:23:08.771Z,25.58
2023-09-27T09:25:44.955Z,25.63
2023-09-27T09:28:14.752Z,25.55
2023-09-27T09:30:42.679Z,25.54
2023-09-27T09:33:12.442Z,25.45
2023-09-27T09:35:39.843Z,25.34
2023-09-27T09:38:07.004Z,25.51
2023-09-27T09:40:35.412Z,25.58
2023-09-27T09:43:04.312Z,25.61
2023-09-27T09:45:31.630Z,25.54
2023-09-27T09:47:59.087Z,25.71
2023-09-27T09:50:28.305Z,25.68
2023-09-27T09:52:58.491Z,25.83
2023-09-27T09:56:01.059Z,25.89
2023-09-27T09:58:39.426Z,26.02
2023-09-27T10:01:09.205Z,25.99
2023-09-27T10:03:36.533Z,26.00
2023-09-27T10:06:06.481Z,26.19
2023-09-27T10:08:40.351Z,26.27
2023-09-27T10:11:07.808Z,26.21
2023-09-27T10:13:37.348Z,26.33
2023-09-27T10:16:05.821Z,26.35
2023-09-27T10:18:37.450Z,26.36
2023-09-27T10:21:04.572Z,26.41
2023-09-27T10:23:36.346Z,26.44
2023-09-27T10:26:32.991Z,26.42
2023-09-27T10:29:08.134Z,26.45
2023-09-27T10:31:37.870Z,26.39
2023-09-27T10:34:27.360Z,26.42
2023-09-27T10:37:09.827Z,26.47
2023-09-27T10:40:02.762Z,26.55
2023-09-27T10:42:44.991Z,26.62
2023-09-27T10:45:12.262Z,26.71
2023-09-27T10:47:39.541Z,26.73
2023-09-27T10:50:07.170Z,26.83
2023-09-27T10:52:34.434Z,26.89
2023-09-27T10:55:12.768Z,27.03
2023-09-27T10:57:43.311Z,27.07
2023-09-27T11:00:14.208Z,27.17
2023-09-27T11:02:43.501Z,27.21
2023-09-27T11:05:10.946Z,27.28
2023-09-27T11:07:49.431Z,27.33
2023-09-27T11:10:33.211Z,27.42
2023-09-27T11:13:11.766Z,27.48
2023-09-27T11:15:40.011Z,27.54
2023-09-27T11:18:12.073Z,27.36
2023-09-27T11:20:42.550Z,27.27
2023-09-27T11:23:09.831Z,27.23
2023-09-27T11:25:39.356Z,27.30
2023-09-27T11:28:06.634Z,27.49
2023-09-27T11:30:36.494Z,27.53
2023-09-27T11:33:07.383Z,27.54
2023-09-27T11:35:35.401Z,27.58
2023-09-27T11:38:13.483Z,27.71
2023-09-27T11:40:45.079Z,27.87
2023-09-27T11:43:13.899Z,27.69
2023-09-27T11:45:49.478Z,27.62
2023-09-27T11:48:18.242Z,27.47
2023-09-27T11:50:45.606Z,27.50
2023-09-27T11:53:13.947Z,27.55
2023-09-27T11:55:42.637Z,27.70
2023-09-27T11:58:10.243Z,27.80
2023-09-27T12:00:37.452Z,27.86
2023-09-27T12:03:14.216Z,27.93
2023-09-27T12:05:41.543Z,27.86
2023-09-27T12:08:09.758Z,27.90
2023-09-27T12:10:36.970Z,27.93
2023-09-27T12:13:04.610Z,28.01
2023-09-27T12:15:31.780Z,28.12
2023-09-27T12:17:59.022Z,28.21
2023-09-27T12:20:39.354Z,28.34
2023-09-27T12:23:10.514Z,28.20
2023-09-27T12:25:38.326Z,28.09
2023-09-27T12:28:06.189Z,28.11
2023-09-27T12:30:33.353Z,28.15
2023-09-27T12:33:00.768Z,28.16
2023-09-27T12:35:28.070Z,28.28
2023-09-27T12:37:55.191Z,28.15
2023-09-27T12:40:22.435Z,28.22
2023-09-27T12:42:49.561Z,28.34
2023-09-27T12:45:16.715Z,28.49
2023-09-27T12:47:44.009Z,28.51
2023-09-27T12:50:11.436Z,28.39
2023-09-27T12:52:38.573Z,28.14
2023-09-27T12:55:06.664Z,28.21
2023-09-27T12:57:33.970Z,28.33
2023-09-27T13:00:01.281Z,28.39
2023-09-27T13:02:29.647Z,28.40
2023-09-27T13:04:56.920Z,28.23
2023-09-27T13:07:24.188Z,28.28
2023-09-27T13:09:51.602Z,28.29
2023-09-27T13:12:18.991Z,28.38
2023-09-27T13:14:46.434Z,28.48
2023-09-27T13:17:13.721Z,28.43
2023-09-27T13:19:41.043Z,28.32
2023-09-27T13:22:08.132Z,28.28
2023-09-27T13:24:35.317Z,28.22
2023-09-27T13:27:02.409Z,28.20
2023-09-27T13:29:29.580Z,28.20
2023-09-27T13:31:56.786Z,28.20
2023-09-27T13:34:23.924Z,28.15
2023-09-27T13:36:51.087Z,28.22
2023-09-27T13:39:18.900Z,27.80
2023-09-27T13:41:47.650Z,28.03
2023-09-27T13:44:15.739Z,27.99
2023-09-27T13:46:43.374Z,27.97
2023-09-27T13:49:10.765Z,28.15
2023-09-27T13:51:38.415Z,28.24
2023-09-27T13:54:07.929Z,28.38
2023-09-27T13:56:36.276Z,28.32
2023-09-27T13:59:03.503Z,28.34
2023-09-27T14:01:31.812Z,28.37
2023-09-27T14:04:00.279Z,28.46
2023-09-27T14:06:28.151Z,28.49
2023-09-27T14:08:55.799Z,28.49
2023-09-27T14:11:23.421Z,28.59
2023-09-27T14:13:50.581Z,28.57
2023-09-27T14:16:18.370Z,28.48
2023-09-27T14:18:46.232Z,28.51
2023-09-27T14:21:14.740Z,28.40
2023-09-27T14:23:44.197Z,28.34
2023-09-27T14:26:12.660Z,28.16
2023-09-27T14:28:40.379Z,28.20
2023-09-27T14:31:08.066Z,28.20
2023-09-27T14:33:36.408Z,28.36
2023-09-27T14:36:04.954Z,28.45
2023-09-27T14:38:35.976Z,28.45
2023-09-27T14:41:12.147Z,28.43
2023-09-27T14:43:39.990Z,28.42
2023-09-27T14:46:14.019Z,28.44
2023-09-27T14:48:41.792Z,28.31
2023-09-27T14:51:13.340Z,28.23
2023-09-27T14:53:45.790Z,28.19
2023-09-27T14:56:18.203Z,28.20
2023-09-27T14:58:47.680Z,28.31
2023-09-27T15:01:17.720Z,28.35
2023-09-27T15:03:45.406Z,28.31
2023-09-27T15:06:12.680Z,28.24
2023-09-27T15:08:40.072Z,28.31
2023-09-27T15:11:07.255Z,28.25
2023-09-27T15:13:35.258Z,28.16
2023-09-27T15:16:02.707Z,28.27
2023-09-27T15:18:30.710Z,28.24
2023-09-27T15:20:57.969Z,28.12
2023-09-27T15:23:25.132Z,28.10
2023-09-27T15:25:52.458Z,28.06
2023-09-27T15:28:19.693Z,28.08
2023-09-27T15:30:47.839Z,27.98
2023-09-27T15:33:15.194Z,28.13
2023-09-27T15:35:52.473Z,28.15
2023-09-27T15:38:19.776Z,28.17
2023-09-27T15:40:47.565Z,28.14
2023-09-27T15:43:14.852Z,28.25
2023-09-27T15:45:42.136Z,28.21
2023-09-27T15:48:09.294Z,28.10
2023-09-27T15:50:39.441Z,28.06
2023-09-27T15:53:06.697Z,28.02
2023-09-27T15:55:33.850Z,27.93
2023-09-27T15:58:05.985Z,27.85
2023-09-27T16:00:34.332Z,27.92
2023-09-27T16:03:01.672Z,27.83
2023-09-27T16:05:30.348Z,27.80
2023-09-27T16:07:58.027Z,27.75
2023-09-27T16:10:26.981Z,27.67
2023-09-27T16:12:54.134Z,27.59
2023-09-27T16:15:21.427Z,27.51
2023-09-27T16:17:48.577Z,27.50
2023-09-27T16:20:15.913Z,27.36
2023-09-27T16:22:43.302Z,27.34
2023-09-27T16:25:11.265Z,27.35
2023-09-27T16:27:38.646Z,27.07
2023-09-27T16:30:06.993Z,27.33
2023-09-27T16:32:34.946Z,27.35
2023-09-27T16:35:02.631Z,27.06
2023-09-27T16:37:29.942Z,27.18
2023-09-27T16:39:57.110Z,27.26
2023-09-27T16:42:26.707Z,27.24
2023-09-27T16:44:56.104Z,27.18
2023-09-27T16:47:23.286Z,27.17
2023-09-27T16:49:50.506Z,27.11
2023-09-27T16:52:17.584Z,27.01
2023-09-27T16:54:45.435Z,27.05
2023-09-27T16:57:12.673Z,26.93
2023-09-27T16:59:40.142Z,26.94
2023-09-27T17:02:07.391Z,26.86
2023-09-27T17:04:34.595Z,26.60
2023-09-27T17:07:01.818Z,26.83
2023-09-27T17:09:29.748Z,26.72
2023-09-27T17:11:58.090Z,26.72
2023-09-27T17:14:25.377Z,26.69
2023-09-27T17:16:52.610Z,26.66
2023-09-27T17:19:26.364Z,26.62
2023-09-27T17:21:56.298Z,26.47
2023-09-27T17:24:23.515Z,26.53
2023-09-27T17:26:50.665Z,26.48
2023-09-27T17:29:18.024Z,26.44
2023-09-27T17:31:45.432Z,26.54
2023-09-27T17:34:12.592Z,26.41
2023-09-27T17:36:40.134Z,26.51
2023-09-27T17:39:07.947Z,26.31
2023-09-27T17:41:35.411Z,26.26
2023-09-27T17:44:03.362Z,26.45
2023-09-27T17:46:30.842Z,26.31
2023-09-27T17:48:59.500Z,26.41
2023-09-27T17:51:26.763Z,26.29
2023-09-27T17:53:54.053Z,26.32
2023-09-27T17:56:21.376Z,26.34
2023-09-27T17:58:48.861Z,26.24
2023-09-27T18:01:16.053Z,26.09
2023-09-27T18:03:44.006Z,26.24
2023-09-27T18:06:12.799Z,26.26
2023-09-27T18:08:42.142Z,26.23
2023-09-27T18:11:13.068Z,26.26
2023-09-27T18:13:41.841Z,26.11
2023-09-27T18:16:20.459Z,26.19
2023-09-27T18:18:49.417Z,26.12
2023-09-27T18:21:20.451Z,25.91
2023-09-27T18:23:50.052Z,26.11
2023-09-27T18:26:17.566Z,26.10
2023-09-27T18:28:45.069Z,26.08
2023-09-27T18:31:12.595Z,25.87
2023-09-27T18:33:39.775Z,25.94
2023-09-27T18:36:07.596Z,25.66
2023-09-27T18:38:34.935Z,25.39
2023-09-27T18:41:02.327Z,25.56
2023-09-27T18:43:29.833Z,25.60
2023-09-27T18:45:59.852Z,25.59
2023-09-27T18:48:27.378Z,25.71
2023-09-27T18:50:55.376Z,25.66
2023-09-27T18:53:22.640Z,25.76
2023-09-27T18:55:49.894Z,25.77
2023-09-27T18:58:17.173Z,25.66
2023-09-27T19:00:44.962Z,25.70
2023-09-27T19:03:13.884Z,25.67
2023-09-27T19:05:41.531Z,25.72
2023-09-27T19:08:09.297Z,25.74
2023-09-27T19:10:39.686Z,25.69
2023-09-27T19:13:07.029Z,25.69
2023-09-27T19:15:34.741Z,25.54
2023-09-27T19:18:02.265Z,25.65
2023-09-27T19:20:30.772Z,25.60
2023-09-27T19:22:58.652Z,25.43
2023-09-27T19:25:25.736Z,25.56
2023-09-27T19:27:52.932Z,25.29
2023-09-27T19:30:20.240Z,25.48
2023-09-27T19:32:47.446Z,25.21
2023-09-27T19:35:15.925Z,24.91
2023-09-27T19:37:43.954Z,24.57
2023-09-27T19:40:13.107Z,24.23
2023-09-27T19:42:41.572Z,24.25
2023-09-27T19:45:09.611Z,24.36
2023-09-27T19:47:36.942Z,24.48
2023-09-27T19:50:05.807Z,24.49
2023-09-27T19:52:34.186Z,24.32
2023-09-27T19:55:01.539Z,24.27
2023-09-27T19:57:29.659Z,24.13
2023-09-27T19:59:57.012Z,24.13
2023-09-27T20:02:24.747Z,24.18
2023-09-27T20:04:51.998Z,24.19
2023-09-27T20:07:19.260Z,24.20
2023-09-27T20:09:46.355Z,24.22
2023-09-27T20:12:13.640Z,24.14
2023-09-27T20:14:40.823Z,24.18
2023-09-27T20:17:08.408Z,24.17
2023-09-27T20:19:35.574Z,23.98
2023-09-27T20:22:03.247Z,24.14
2023-09-27T20:24:31.126Z,24.15
2023-09-27T20:27:00.001Z,24.05
2023-09-27T20:29:29.066Z,23.99
2023-09-27T20:31:57.652Z,23.96
2023-09-27T20:34:24.694Z,23.94
2023-09-27T20:36:52.327Z,24.07
2023-09-27T20:39:20.726Z,24.09
2023-09-27T20:41:47.864Z,24.00
2023-09-27T20:44:15.211Z,23.93
2023-09-27T20:46:42.521Z,23.93
2023-09-27T20:49:09.610Z,23.95
2023-09-27T20:51:37.116Z,24.08
2023-09-27T20:54:04.868Z,24.07
2023-09-27T20:56:32.038Z,24.17
2023-09-27T20:58:59.180Z,24.13
2023-09-27T21:01:36.922Z,24.08
2023-09-27T21:04:04.938Z,24.16
2023-09-27T21:06:32.398Z,24.02
2023-09-27T21:09:02.571Z,24.13
2023-09-27T21:11:30.720Z,24.13
2023-09-27T21:13:59.847Z,24.00
2023-09-27T21:16:27.861Z,23.88
2023-09-27T21:18:55.646Z,23.70
2023-09-27T21:21:23.915Z,23.74
2023-09-27T21:23:53.142Z,23.74
2023-09-27T21:26:20.658Z,23.81
2023-09-27T21:28:48.252Z,23.77
2023-09-27T21:31:15.519Z,23.56
2023-09-27T21:33:43.973Z,23.56
2023-09-27T21:36:11.779Z,23.57
2023-09-27T21:38:40.116Z,23.68
2023-09-27T21:41:07.532Z,23.57
2023-09-27T21:43:35.018Z,23.49
2023-09-27T21:46:03.238Z,23.63
2023-09-27T21:48:30.561Z,23.50
2023-09-27T21:50:57.676Z,23.19
2023-09-27T21:53:24.874Z,23.32
2023-09-27T21:55:52.008Z,23.21
2023-09-27T21:58:19.115Z,23.06
2023-09-27T22:00:46.281Z,22.99
2023-09-27T22:03:15.575Z,23.07
2023-09-27T22:05:42.713Z,22.91
2023-09-27T22:08:17.795Z,22.92
2023-09-27T22:10:46.088Z,22.85
2023-09-27T22:13:23.337Z,22.90
2023-09-27T22:15:56.007Z,22.54
2023-09-27T22:18:26.337Z,22.09
2023-09-27T22:20:55.420Z,22.11
2023-09-27T22:23:40.753Z,22.08
2023-09-27T22:26:18.472Z,21.76
2023-09-27T22:28:46.571Z,22.09
2023-09-27T22:31:15.422Z,21.71
2023-09-27T22:33:43.684Z,21.88
2023-09-27T22:36:11.458Z,21.99
2023-09-27T22:38:38.550Z,22.14
2023-09-27T22:41:16.089Z,22.27
2023-09-27T22:43:44.058Z,22.41
2023-09-27T22:46:11.675Z,22.35
2023-09-27T22:48:38.834Z,22.29
2023-09-27T22:51:09.224Z,22.08
2023-09-27T22:53:37.299Z,22.27
2023-09-27T22:56:08.133Z,22.48
2023-09-27T22:58:36.728Z,22.59
2023-09-27T23:01:40.659Z,22.61
2023-09-27T23:04:12.440Z,22.59
2023-09-27T23:06:45.935Z,22.30
2023-09-27T23:09:25.690Z,22.40
2023-09-27T23:12:12.858Z,22.36
2023-09-27T23:15:12.210Z,22.63
2023-09-27T23:17:58.024Z,22.47
2023-09-27T23:20:31.102Z,22.56
2023-09-27T23:22:59.575Z,22.63
2023-09-27T23:25:45.200Z,22.65
2023-09-27T23:28:28.672Z,22.52
2023-09-27T23:30:57.402Z,22.44
2023-09-27T23:33:24.620Z,22.56
2023-09-27T23:35:51.613Z,22.50
2023-09-27T23:38:37.788Z,22.39
2023-09-27T23:41:05.411Z,22.59
2023-09-27T23:43:41.778Z,22.34
2023-09-27T23:46:15.422Z,22.35
2023-09-27T23:48:43.353Z,22.41
2023-09-27T23:51:10.448Z,22.29
2023-09-27T23:53:37.634Z,22.23
2023-09-27T23:56:07.932Z,22.22
2023-09-27T23:58:35.779Z,22.12
